Time;durP1;ratioP1;P1;durP2;ratioP2;P2;SDS_P1;SDS_P2;PMS_P1;PMS_P2;Temp;Humidity;BMP_temperature;BMP_pressure;BME280_temperature;BME280_humidity;BME280_pressure;Samples;Min_cycle;Max_cycle;Signal;HPM_P1;HPM_P2
2022/12/17 13:06:04;;;;;;;11.65;2.92;;;-0.10;99.90;;;;;;5045187;28;20175;-81
2022/12/17 13:08:30;;;;;;;9.93;3.08;;;-0.10;99.90;;;;;;5048603;28;20119;-80
2022/12/17 13:10:56;;;;;;;11.10;3.67;;;-0.20;99.90;;;;;;5049894;28;20478;-80
2022/12/17 13:13:39;;;;;;;14.75;4.00;;;-0.20;99.90;;;;;;5052653;28;20037;-80
2022/12/17 13:16:32;;;;;;;5.80;3.03;;;-0.20;99.90;;;;;;5048268;28;20037;-80
2022/12/17 13:19:36;;;;;;;8.30;3.28;;;-0.30;99.90;;;;;;5055232;28;20024;-80
2022/12/17 13:22:14;;;;;;;8.65;3.20;;;-0.30;99.90;;;;;;5040074;28;20045;-79
2022/12/17 13:24:48;;;;;;;11.48;3.47;;;-0.40;99.90;;;;;;5046037;28;20033;-80
2022/12/17 13:27:39;;;;;;;8.75;3.15;;;-0.40;99.90;;;;;;5051204;28;20037;-80
2022/12/17 13:30:16;;;;;;;9.23;3.60;;;-0.40;99.90;;;;;;5050554;28;20112;-80
2022/12/17 13:33:17;;;;;;;14.73;2.90;;;-0.40;99.90;;;;;;5050103;28;20462;-80
2022/12/17 13:36:18;;;;;;;5.88;3.20;;;-0.50;99.90;;;;;;5043934;28;20045;-80
2022/12/17 13:39:19;;;;;;;9.15;2.97;;;-0.60;99.90;;;;;;5055337;28;20033;-80
2022/12/17 13:41:45;;;;;;;11.05;3.67;;;-0.60;99.90;;;;;;5045830;28;20039;-80
2022/12/17 13:44:21;;;;;;;9.68;3.33;;;-0.70;99.90;;;;;;5042852;28;20025;-79
2022/12/17 13:46:49;;;;;;;9.80;3.33;;;-0.70;99.90;;;;;;5046266;28;20045;-80
2022/12/17 13:49:28;;;;;;;10.32;3.33;;;-0.80;99.90;;;;;;5045084;28;20393;-80
2022/12/17 13:52:22;;;;;;;9.27;3.15;;;-0.80;99.90;;;;;;5050485;28;20058;-80
2022/12/17 13:54:48;;;;;;;4.65;2.58;;;-0.80;99.90;;;;;;5048588;28;20061;-80
2022/12/17 13:57:24;;;;;;;5.75;2.75;;;-0.90;99.90;;;;;;5039615;28;20106;-80
2022/12/17 13:59:56;;;;;;;9.65;2.97;;;-0.90;99.90;;;;;;5055069;28;20041;-80
2022/12/17 14:02:42;;;;;;;5.80;2.65;;;-0.90;99.90;;;;;;5050333;28;20492;-80
2022/12/17 14:05:23;;;;;;;6.10;2.95;;;-0.90;99.90;;;;;;5046545;28;20055;-79
2022/12/17 14:07:51;;;;;;;2.78;2.33;;;-1.00;99.90;;;;;;5046462;28;20044;-80
2022/12/17 14:10:18;;;;;;;5.43;2.47;;;-1.00;99.90;;;;;;5051743;28;20083;-80
2022/12/17 14:12:44;;;;;;;7.63;2.78;;;-1.00;99.90;;;;;;5044013;28;20021;-81
2022/12/17 14:15:28;;;;;;;18.52;6.43;;;-1.10;99.90;;;;;;5053663;28;20041;-80
2022/12/17 14:17:55;;;;;;;31.95;8.63;;;-1.20;99.90;;;;;;5048234;28;20064;-80
2022/12/17 14:20:24;;;;;;;19.42;6.35;;;-1.20;99.90;;;;;;5044283;28;20033;-81
2022/12/17 14:22:53;;;;;;;13.45;4.95;;;-1.20;99.90;;;;;;5053067;28;20029;-80
2022/12/17 14:25:34;;;;;;;8.73;3.47;;;-1.20;99.90;;;;;;5051055;28;20025;-80
2022/12/17 14:28:03;;;;;;;5.45;2.40;;;-1.20;99.90;;;;;;5050520;28;20553;-80
2022/12/17 14:30:41;;;;;;;5.25;2.47;;;-1.30;99.90;;;;;;5045156;28;20029;-81
2022/12/17 14:33:31;;;;;;;16.90;5.03;;;-1.40;99.90;;;;;;5049779;28;20044;-80
2022/12/17 14:36:00;;;;;;;30.50;9.90;;;-1.50;99.90;;;;;;5044350;28;20025;-80
2022/12/17 14:38:26;;;;;;;52.13;14.15;;;-1.50;99.90;;;;;;5050742;28;20107;-80
2022/12/17 14:40:52;;;;;;;42.75;14.32;;;-1.50;99.90;;;;;;5052428;28;20027;-80
2022/12/17 14:43:25;;;;;;;46.53;14.05;;;-1.60;99.90;;;;;;5047306;28;20040;-81
2022/12/17 14:48:59;;;;;;;37.75;15.27;;;-1.70;99.90;;;;;;5046274;28;20133;-81
2022/12/17 14:51:34;;;;;;;34.40;12.52;;;-1.80;99.90;;;;;;5057182;28;20024;-80
2022/12/17 14:54:31;;;;;;;27.80;11.75;;;-1.80;99.90;;;;;;5047831;28;20127;-80
2022/12/17 14:57:03;;;;;;;25.00;10.32;;;-1.90;99.90;;;;;;5050148;28;20029;-80
2022/12/17 14:59:32;;;;;;;28.60;12.50;;;-1.90;99.90;;;;;;5057683;28;20056;-80
2022/12/17 15:02:22;;;;;;;22.90;11.10;;;-2.00;99.90;;;;;;5054995;28;20542;-80
2022/12/17 15:04:49;;;;;;;28.35;13.02;;;-2.00;99.90;;;;;;5056130;28;20478;-81
2022/12/17 15:07:24;;;;;;;22.48;10.77;;;-2.10;99.90;;;;;;5057419;28;20060;-81
2022/12/17 15:09:51;;;;;;;23.73;10.93;;;-2.10;99.90;;;;;;5053566;28;20033;-81
2022/12/17 15:12:17;;;;;;;22.13;11.15;;;-2.20;99.90;;;;;;5050841;28;20543;-80
2022/12/17 15:14:43;;;;;;;24.48;11.45;;;-2.20;99.90;;;;;;5056047;28;20035;-81
2022/12/17 15:17:08;;;;;;;20.92;11.25;;;-2.10;99.90;;;;;;5050403;28;20468;-81
2022/12/17 15:19:34;;;;;;;18.25;10.57;;;-2.20;99.90;;;;;;5049784;28;20031;-82
2022/12/17 15:22:01;;;;;;;15.30;8.25;;;-2.20;99.90;;;;;;5048354;28;20025;-80
2022/12/17 15:24:27;;;;;;;15.25;7.78;;;-2.30;99.90;;;;;;5047637;28;20584;-81
2022/12/17 15:26:53;;;;;;;11.68;6.38;;;-2.30;99.90;;;;;;5050126;28;20041;-81
2022/12/17 15:29:19;;;;;;;12.20;6.00;;;-2.30;99.90;;;;;;5051687;28;20033;-81
2022/12/17 15:31:45;;;;;;;14.07;6.50;;;-2.30;99.90;;;;;;5050017;28;20524;-81
2022/12/17 15:34:11;;;;;;;11.00;5.57;;;-2.40;99.90;;;;;;5048679;28;20036;-80
2022/12/17 15:36:37;;;;;;;9.93;5.38;;;-2.40;99.90;;;;;;5052786;28;20051;-80
2022/12/17 15:39:05;;;;;;;8.18;4.45;;;-2.50;99.90;;;;;;5050684;28;20134;-81
2022/12/17 15:44:14;;;;;;;9.05;4.93;;;-2.50;99.90;;;;;;5047153;28;20075;-81
2022/12/17 15:46:40;;;;;;;7.57;3.97;;;-2.60;99.90;;;;;;5050322;28;20072;-81
2022/12/17 15:49:06;;;;;;;7.10;3.97;;;-2.60;99.90;;;;;;5042165;28;20032;-81
2022/12/17 15:51:31;;;;;;;8.60;3.58;;;-2.70;99.90;;;;;;5044807;28;20033;-81
2022/12/17 15:53:57;;;;;;;5.82;2.55;;;-2.70;99.90;;;;;;5043726;28;20039;-81
2022/12/17 15:56:25;;;;;;;2.40;2.20;;;-2.70;99.90;;;;;;5049823;28;20028;-81
2022/12/17 15:58:51;;;;;;;5.43;2.38;;;-2.70;99.90;;;;;;5051867;28;20021;-81
2022/12/17 16:01:18;;;;;;;7.32;2.53;;;-2.60;99.90;;;;;;5045428;28;20374;-81
2022/12/17 16:03:44;;;;;;;3.28;2.67;;;-2.40;99.90;;;;;;5045528;28;20049;-80
2022/12/17 16:06:10;;;;;;;8.32;2.13;;;-2.30;99.90;;;;;;5041004;28;20448;-81
2022/12/17 16:08:38;;;;;;;8.20;2.75;;;-2.30;99.90;;;;;;5039926;28;20078;-79
2022/12/17 16:11:11;;;;;;;10.80;2.70;;;-2.10;99.90;;;;;;5045312;28;20541;-81
2022/12/17 16:13:38;;;;;;;13.80;4.57;;;-2.00;99.90;;;;;;5045329;28;20049;-80
2022/12/17 16:16:04;;;;;;;8.82;3.28;;;-1.90;99.90;;;;;;5044243;28;20478;-80
2022/12/17 16:18:30;;;;;;;16.60;2.90;;;-1.90;99.90;;;;;;5042597;28;20400;-81
2022/12/17 16:21:03;;;;;;;8.00;2.88;;;-1.80;99.90;;;;;;5050651;28;20029;-80
2022/12/17 16:23:29;;;;;;;7.50;3.33;;;-1.70;99.90;;;;;;5046751;28;20520;-81
2022/12/17 16:26:00;;;;;;;11.30;3.13;;;-1.60;99.90;;;;;;5056059;28;20111;-80
2022/12/17 16:28:26;;;;;;;15.95;3.17;;;-1.50;99.90;;;;;;5048604;28;20047;-80
2022/12/17 16:31:13;;;;;;;12.48;3.40;;;-1.50;99.90;;;;;;5041173;28;20084;-79
2022/12/17 16:33:40;;;;;;;12.27;3.28;;;-1.50;99.90;;;;;;5044256;28;20029;-81
2022/12/17 16:36:10;;;;;;;7.90;3.05;;;-1.40;99.90;;;;;;5047661;28;20039;-80
2022/12/17 16:38:45;;;;;;;14.93;3.03;;;-1.40;99.90;;;;;;5037398;28;20044;-80
2022/12/17 16:41:11;;;;;;;11.97;2.77;;;-1.30;99.90;;;;;;5050964;28;20438;-80
2022/12/17 16:43:37;;;;;;;7.50;3.25;;;-1.40;99.90;;;;;;5049216;28;20041;-80
2022/12/17 16:46:03;;;;;;;5.50;2.90;;;-1.30;99.90;;;;;;5052614;28;20040;-80
2022/12/17 16:48:28;;;;;;;8.73;3.42;;;-1.30;99.90;;;;;;5052153;28;20040;-81
2022/12/17 16:50:54;;;;;;;8.75;2.88;;;-1.30;99.90;;;;;;5052670;28;20033;-80
2022/12/17 16:53:19;;;;;;;13.18;3.75;;;-1.20;99.90;;;;;;5046555;28;20074;-80
2022/12/17 16:55:47;;;;;;;10.23;3.38;;;-1.10;99.90;;;;;;5046781;28;20032;-80
2022/12/17 16:58:14;;;;;;;11.05;3.35;;;-1.20;99.90;;;;;;5055463;28;20025;-81
2022/12/17 17:00:40;;;;;;;12.85;3.88;;;-1.20;99.90;;;;;;5051943;28;20024;-80
2022/12/17 17:03:09;;;;;;;9.60;3.50;;;-1.10;99.90;;;;;;5049151;28;20367;-79
2022/12/17 17:05:38;;;;;;;7.85;3.33;;;-1.10;99.90;;;;;;5045935;28;20063;-81
2022/12/17 17:08:05;;;;;;;12.73;3.65;;;-1.20;99.90;;;;;;5045623;28;20132;-80
2022/12/17 17:10:33;;;;;;;8.70;3.72;;;-1.10;99.90;;;;;;5047761;28;20030;-80
2022/12/17 17:12:59;;;;;;;21.23;4.20;;;-1.10;99.90;;;;;;5050889;28;20545;-81
2022/12/17 17:15:24;;;;;;;10.77;4.35;;;-1.10;99.90;;;;;;5040876;28;20164;-81
2022/12/17 17:17:50;;;;;;;14.18;3.47;;;-1.10;99.90;;;;;;5048948;28;20138;-81
2022/12/17 17:20:17;;;;;;;14.65;3.80;;;-1.10;99.90;;;;;;5043985;28;20518;-80
2022/12/17 17:22:43;;;;;;;10.23;3.75;;;-1.10;99.90;;;;;;5051936;28;20025;-81
2022/12/17 17:25:08;;;;;;;12.10;3.72;;;-1.20;99.90;;;;;;5045849;28;20056;-81
2022/12/17 17:27:34;;;;;;;15.25;4.07;;;-1.10;99.90;;;;;;5045581;28;20397;-81
2022/12/17 17:30:00;;;;;;;9.50;3.80;;;-1.20;99.90;;;;;;5053595;28;20029;-82
2022/12/17 17:32:26;;;;;;;6.43;3.42;;;-1.20;99.90;;;;;;5041474;28;20033;-80
2022/12/17 17:34:51;;;;;;;11.55;3.38;;;-1.20;99.90;;;;;;5049921;28;20497;-80
2022/12/17 17:37:17;;;;;;;11.05;3.63;;;-1.20;99.90;;;;;;5049590;28;20467;-82
2022/12/17 17:39:43;;;;;;;10.68;3.83;;;-1.20;99.90;;;;;;5049721;28;20462;-81
2022/12/17 17:42:09;;;;;;;12.05;3.60;;;-1.20;99.90;;;;;;5059172;28;20412;-81
2022/12/17 17:44:34;;;;;;;8.73;3.17;;;-1.20;99.90;;;;;;5050356;28;20043;-81
2022/12/17 17:47:00;;;;;;;9.50;2.88;;;-1.20;99.90;;;;;;5050044;28;20052;-82
2022/12/17 17:49:26;;;;;;;8.77;3.67;;;-1.20;99.90;;;;;;5047207;28;20049;-82
2022/12/17 17:51:52;;;;;;;4.30;2.97;;;-1.30;99.90;;;;;;5049012;28;20440;-80
2022/12/17 17:54:18;;;;;;;13.02;4.68;;;-1.30;99.90;;;;;;5049749;28;20021;-81
2022/12/17 17:56:43;;;;;;;16.42;5.43;;;-1.30;99.90;;;;;;5045806;28;20036;-80
2022/12/17 17:59:16;;;;;;;10.82;3.47;;;-1.30;99.90;;;;;;5047596;28;20436;-81
2022/12/17 18:01:45;;;;;;;5.10;3.25;;;-1.30;99.90;;;;;;5041834;28;20461;-81
2022/12/17 18:04:13;;;;;;;8.25;3.10;;;-1.30;99.90;;;;;;5055856;28;20059;-80
2022/12/17 18:06:43;;;;;;;9.65;3.15;;;-1.30;99.90;;;;;;5046695;28;20041;-80
2022/12/17 18:09:10;;;;;;;8.10;3.20;;;-1.30;99.90;;;;;;5045841;28;20064;-81
2022/12/17 18:11:37;;;;;;;9.02;3.28;;;-1.30;99.90;;;;;;5046388;28;20025;-80
2022/12/17 18:14:04;;;;;;;12.05;3.08;;;-1.30;99.90;;;;;;5049672;28;20025;-81
2022/12/17 18:16:42;;;;;;;4.75;2.97;;;-1.30;99.90;;;;;;5039654;28;20044;-80
2022/12/17 18:19:09;;;;;;;4.85;2.80;;;-1.30;99.90;;;;;;5044224;28;20025;-83
2022/12/17 18:21:35;;;;;;;7.40;3.40;;;-1.40;99.90;;;;;;5048395;28;20025;-80
2022/12/17 18:24:04;;;;;;;6.18;3.28;;;-1.50;99.90;;;;;;5047214;28;20401;-79
2022/12/17 18:26:33;;;;;;;8.43;3.00;;;-1.60;99.90;;;;;;5040265;28;20447;-80
2022/12/17 18:29:02;;;;;;;7.93;3.25;;;-1.70;99.90;;;;;;5047820;28;20092;-80
2022/12/17 18:31:29;;;;;;;6.03;2.95;;;-1.80;99.90;;;;;;5042674;28;20087;-80
2022/12/17 18:33:57;;;;;;;7.15;2.70;;;-1.80;99.90;;;;;;5046050;28;20040;-80
2022/12/17 18:36:32;;;;;;;5.80;2.85;;;-1.90;99.90;;;;;;5049574;28;20041;-81
2022/12/17 18:39:09;;;;;;;6.00;3.00;;;-2.00;99.90;;;;;;5043266;28;20040;-81
2022/12/17 18:44:20;;;;;;;12.70;3.00;;;-2.10;99.90;;;;;;5049136;28;20063;-81
2022/12/17 18:46:46;;;;;;;12.88;3.25;;;-2.10;99.90;;;;;;5050600;28;20032;-80
2022/12/17 18:49:16;;;;;;;8.73;3.15;;;-2.10;99.90;;;;;;5049762;28;20063;-79
2022/12/17 18:51:44;;;;;;;9.95;3.75;;;-2.20;99.90;;;;;;5044925;28;20094;-80
2022/12/17 18:54:17;;;;;;;3.75;2.65;;;-2.20;99.90;;;;;;5051953;28;20028;-80
2022/12/17 18:56:43;;;;;;;8.98;2.47;;;-2.20;99.90;;;;;;5054340;28;20474;-81
2022/12/17 18:59:12;;;;;;;14.88;3.65;;;-2.30;99.90;;;;;;5051631;28;20100;-80
2022/12/17 19:01:38;;;;;;;5.32;2.60;;;-2.30;99.90;;;;;;5042119;28;20029;-81
2022/12/17 19:04:07;;;;;;;6.97;3.10;;;-2.30;99.90;;;;;;5051553;28;20104;-80
2022/12/17 19:06:35;;;;;;;9.40;2.95;;;-2.30;99.90;;;;;;5046312;28;20134;-80
2022/12/17 19:09:01;;;;;;;5.78;2.75;;;-2.40;99.90;;;;;;5040138;28;20033;-81
2022/12/17 19:11:27;;;;;;;12.02;2.97;;;-2.40;99.90;;;;;;5042599;28;20013;-80
2022/12/17 19:13:53;;;;;;;11.40;3.63;;;-2.40;99.90;;;;;;5044868;28;20474;-80
2022/12/17 19:16:21;;;;;;;16.55;3.63;;;-2.40;99.90;;;;;;5047656;28;20025;-81
2022/12/17 19:19:02;;;;;;;8.75;3.13;;;-2.40;99.90;;;;;;5044275;28;20029;-80
2022/12/17 19:21:29;;;;;;;6.18;3.25;;;-2.40;99.90;;;;;;5046322;28;20385;-81
2022/12/17 19:23:57;;;;;;;9.23;2.75;;;-2.50;99.90;;;;;;5038076;28;20021;-80
2022/12/17 19:26:24;;;;;;;15.20;8.32;;;-2.50;99.90;;;;;;5046632;28;20469;-80
2022/12/17 19:28:51;;;;;;;9.52;4.93;;;-2.50;99.90;;;;;;5048811;28;20040;-81
2022/12/17 19:31:18;;;;;;;4.03;3.42;;;-2.50;99.90;;;;;;5048386;28;20029;-81
2022/12/17 19:33:45;;;;;;;7.22;3.03;;;-2.60;99.90;;;;;;5041299;28;20031;-81
2022/12/17 19:36:21;;;;;;;5.72;2.90;;;-2.50;99.90;;;;;;5047426;28;20108;-81
2022/12/17 19:38:51;;;;;;;5.35;3.15;;;-2.60;99.90;;;;;;5042733;28;20573;-81
2022/12/17 19:41:18;;;;;;;8.15;3.65;;;-2.60;99.90;;;;;;5043091;28;20489;-79
2022/12/17 19:43:45;;;;;;;6.70;3.15;;;-2.60;99.90;;;;;;5049385;28;20020;-81
2022/12/17 19:46:16;;;;;;;9.85;3.45;;;-2.60;99.90;;;;;;5044112;28;20029;-80
2022/12/17 19:48:43;;;;;;;10.65;2.70;;;-2.50;99.90;;;;;;5044785;28;20128;-81
2022/12/17 19:51:10;;;;;;;6.97;3.42;;;-2.50;99.90;;;;;;5049786;28;20031;-81
2022/12/17 19:53:37;;;;;;;9.95;3.10;;;-2.50;99.90;;;;;;5044659;28;20035;-82
2022/12/17 19:56:15;;;;;;;9.00;3.35;;;-2.50;99.90;;;;;;5046370;28;20230;-81
2022/12/17 19:58:43;;;;;;;8.93;3.67;;;-2.60;99.90;;;;;;5046369;28;20028;-81
2022/12/17 20:01:12;;;;;;;7.60;3.90;;;-2.70;99.90;;;;;;5055237;28;20547;-81
2022/12/17 20:03:39;;;;;;;10.05;3.90;;;-2.70;99.90;;;;;;5052857;28;20029;-81
2022/12/17 20:06:06;;;;;;;9.57;3.53;;;-2.80;99.90;;;;;;5050046;28;20053;-81
2022/12/17 20:08:32;;;;;;;11.02;3.75;;;-2.80;99.90;;;;;;5050924;28;20043;-79
2022/12/17 20:11:00;;;;;;;13.00;4.50;;;-2.70;99.90;;;;;;5048031;28;20025;-81
2022/12/17 20:13:26;;;;;;;10.25;4.10;;;-2.70;99.90;;;;;;5055647;28;20035;-81
2022/12/17 20:16:03;;;;;;;12.00;3.80;;;-2.60;99.90;;;;;;5050327;28;20382;-81
2022/12/17 20:18:31;;;;;;;9.48;3.25;;;-2.60;99.90;;;;;;5050908;28;20220;-81
2022/12/17 20:21:04;;;;;;;6.05;4.03;;;-2.60;99.90;;;;;;5055660;28;20055;-81
2022/12/17 20:23:29;;;;;;;7.10;3.95;;;-2.70;99.90;;;;;;5046351;28;20025;-81
2022/12/17 20:26:09;;;;;;;6.97;4.00;;;-2.70;99.90;;;;;;5051378;28;20040;-81
2022/12/17 20:28:36;;;;;;;6.43;3.72;;;-2.70;99.90;;;;;;5048178;28;20033;-81
2022/12/17 20:31:03;;;;;;;8.93;3.65;;;-2.80;99.90;;;;;;5045820;28;20078;-80
2022/12/17 20:33:29;;;;;;;13.35;3.42;;;-2.80;99.90;;;;;;5044380;28;20036;-81
2022/12/17 20:35:55;;;;;;;6.45;3.47;;;-3.00;99.90;;;;;;5046627;28;20051;-81
2022/12/17 20:38:21;;;;;;;3.47;2.97;;;-2.90;99.90;;;;;;5052758;28;20529;-81
2022/12/17 20:40:47;;;;;;;3.75;2.85;;;-2.90;99.90;;;;;;5052618;28;20029;-81
2022/12/17 20:43:13;;;;;;;6.07;3.42;;;-2.90;99.90;;;;;;5050037;28;20025;-81
2022/12/17 20:45:47;;;;;;;9.38;3.60;;;-3.00;99.90;;;;;;5046510;28;20461;-81
2022/12/17 20:48:12;;;;;;;11.20;3.60;;;-3.00;99.90;;;;;;5041060;28;20052;-81
2022/12/17 20:50:39;;;;;;;5.45;3.35;;;-3.10;99.90;;;;;;5058236;28;20032;-80
2022/12/17 20:53:05;;;;;;;18.88;7.03;;;-3.20;99.90;;;;;;5051545;28;20055;-81
2022/12/17 20:55:31;;;;;;;18.35;7.22;;;-3.10;99.90;;;;;;5061546;28;20078;-80
2022/12/17 20:57:57;;;;;;;26.92;9.82;;;-3.20;99.90;;;;;;5055596;28;20032;-81
2022/12/17 21:00:23;;;;;;;11.88;6.70;;;-3.20;99.90;;;;;;5050292;28;20462;-81
2022/12/17 21:02:48;;;;;;;6.85;4.25;;;-3.20;99.90;;;;;;5049572;28;20436;-81
2022/12/17 21:05:16;;;;;;;7.32;4.13;;;-3.30;99.90;;;;;;5056057;28;20037;-81
2022/12/17 21:07:45;;;;;;;9.75;4.30;;;-3.30;99.90;;;;;;5043025;28;20037;-81
2022/12/17 21:10:11;;;;;;;7.15;3.80;;;-3.30;99.90;;;;;;5052182;28;20071;-81
2022/12/17 21:15:21;;;;;;;4.18;2.75;;;-3.40;99.90;;;;;;5046737;28;20025;-81
2022/12/17 21:17:47;;;;;;;5.57;3.05;;;-3.40;99.90;;;;;;5073032;28;20029;-81
2022/12/17 21:20:12;;;;;;;5.18;2.80;;;-3.40;99.90;;;;;;5047975;28;20708;-82
2022/12/17 21:22:40;;;;;;;5.25;3.00;;;-3.40;99.90;;;;;;5054590;28;20032;-81
2022/12/17 21:25:06;;;;;;;7.50;3.67;;;-3.40;99.90;;;;;;5051012;28;20027;-81
2022/12/17 21:27:33;;;;;;;5.45;3.15;;;-3.40;99.90;;;;;;5046585;28;20033;-81
2022/12/17 21:29:59;;;;;;;5.82;3.45;;;-3.40;99.90;;;;;;5056785;28;20024;-81
2022/12/17 21:32:24;;;;;;;9.75;3.45;;;-3.40;99.90;;;;;;5044187;28;20021;-81
2022/12/17 21:34:50;;;;;;;7.65;3.08;;;-3.40;99.90;;;;;;5050992;28;20025;-81
2022/12/17 21:37:15;;;;;;;6.30;3.08;;;-3.40;99.90;;;;;;5040431;28;20033;-81
2022/12/17 21:39:41;;;;;;;6.00;3.08;;;-3.40;99.90;;;;;;5051318;28;20024;-81
2022/12/17 21:44:51;;;;;;;5.63;2.72;;;-3.50;99.90;;;;;;5040672;28;20044;-81
2022/12/17 21:47:16;;;;;;;4.82;2.83;;;-3.60;99.90;;;;;;5049782;28;20041;-81
2022/12/17 21:49:42;;;;;;;3.60;2.67;;;-3.60;99.90;;;;;;5045965;28;20025;-81
2022/12/17 21:52:08;;;;;;;6.72;2.95;;;-3.70;99.90;;;;;;5053696;28;20038;-82
2022/12/17 21:54:33;;;;;;;6.68;3.58;;;-3.70;99.90;;;;;;5048337;28;20025;-81
2022/12/17 21:56:59;;;;;;;13.27;4.60;;;-3.80;99.90;;;;;;5045844;28;20032;-82
2022/12/17 21:59:25;;;;;;;8.43;4.93;;;-3.80;99.90;;;;;;5049680;28;20025;-81
2022/12/17 22:01:51;;;;;;;9.32;4.13;;;-3.80;99.90;;;;;;5052692;28;20496;-82
2022/12/17 22:04:17;;;;;;;8.45;4.18;;;-3.90;99.90;;;;;;5046977;28;20135;-81
2022/12/17 22:06:42;;;;;;;8.65;4.13;;;-4.00;99.90;;;;;;5043723;28;20483;-81
2022/12/17 22:09:09;;;;;;;6.38;3.92;;;-4.10;99.90;;;;;;5046377;28;20034;-81
2022/12/17 22:11:35;;;;;;;9.45;5.55;;;-4.10;99.90;;;;;;5055100;28;20035;-81
2022/12/17 22:14:01;;;;;;;6.78;4.60;;;-4.20;99.90;;;;;;5052871;28;20111;-82
2022/12/17 22:16:29;;;;;;;9.98;4.75;;;-4.20;99.90;;;;;;5045676;28;20052;-82
2022/12/17 22:18:54;;;;;;;11.20;5.10;;;-4.20;99.90;;;;;;5042959;28;20041;-81
2022/12/17 22:21:21;;;;;;;10.20;5.15;;;-4.20;99.90;;;;;;5043579;28;20553;-82
2022/12/17 22:23:48;;;;;;;10.25;4.75;;;-4.20;99.90;;;;;;5049883;28;20021;-82
2022/12/17 22:26:15;;;;;;;13.43;5.03;;;-4.20;99.90;;;;;;5045979;28;20035;-81
2022/12/17 22:28:48;;;;;;;7.85;4.93;;;-4.20;99.90;;;;;;5048887;28;20112;-82
2022/12/17 22:34:02;;;;;;;19.75;5.88;;;-4.40;99.90;;;;;;5044589;28;20031;-82
2022/12/17 22:36:30;;;;;;;10.82;5.85;;;-4.40;99.90;;;;;;5039446;28;20067;-81
2022/12/17 22:38:57;;;;;;;11.57;6.15;;;-4.50;99.90;;;;;;5034390;28;20479;-81
2022/12/17 22:44:07;;;;;;;11.48;5.68;;;-4.60;99.90;;;;;;5053410;28;20074;-81
2022/12/17 22:46:33;;;;;;;9.55;5.72;;;-4.60;99.90;;;;;;5049983;28;20037;-82
2022/12/17 22:48:59;;;;;;;11.40;5.75;;;-4.60;99.90;;;;;;5050657;28;20025;-82
2022/12/17 22:51:25;;;;;;;11.90;6.90;;;-4.70;99.90;;;;;;5054028;28;20466;-81
2022/12/17 22:53:51;;;;;;;11.57;5.30;;;-4.70;99.90;;;;;;5052331;28;20111;-82
2022/12/17 22:56:18;;;;;;;12.63;7.05;;;-4.80;99.90;;;;;;5054015;28;20032;-82
2022/12/17 22:58:44;;;;;;;8.60;5.30;;;-4.80;99.90;;;;;;5052367;28;20028;-82
2022/12/17 23:01:10;;;;;;;13.60;5.88;;;-4.90;99.90;;;;;;5052724;28;20037;-81
2022/12/17 23:03:36;;;;;;;10.38;4.95;;;-4.80;99.90;;;;;;5047289;28;20028;-82
2022/12/17 23:06:14;;;;;;;7.65;4.70;;;-4.90;99.90;;;;;;5048990;28;20465;-82
2022/12/17 23:08:40;;;;;;;10.57;5.07;;;-4.80;99.90;;;;;;5043381;28;20502;-81
2022/12/17 23:11:15;;;;;;;23.25;7.88;;;-4.90;99.90;;;;;;5057700;28;20489;-82
2022/12/17 23:13:41;;;;;;;9.98;4.45;;;-4.90;99.90;;;;;;5043340;28;20021;-81
2022/12/17 23:16:12;;;;;;;15.77;6.63;;;-4.90;99.90;;;;;;5051227;28;20037;-81
2022/12/17 23:18:38;;;;;;;19.75;7.22;;;-4.90;99.90;;;;;;5046364;28;20087;-82
2022/12/17 23:21:10;;;;;;;13.02;7.57;;;-4.90;99.90;;;;;;5050728;28;20146;-82
2022/12/17 23:23:36;;;;;;;16.30;7.18;;;-4.90;99.90;;;;;;5038223;28;20057;-83
2022/12/17 23:26:17;;;;;;;14.60;6.75;;;-4.90;99.90;;;;;;5060124;28;20035;-80
2022/12/17 23:28:43;;;;;;;8.77;5.60;;;-5.00;99.90;;;;;;5046365;28;20493;-82
2022/12/17 23:31:12;;;;;;;8.13;4.40;;;-5.10;99.90;;;;;;5048345;28;20116;-82
2022/12/17 23:33:38;;;;;;;9.52;4.05;;;-5.10;99.90;;;;;;5042517;28;20061;-82
2022/12/17 23:36:09;;;;;;;4.43;2.75;;;-5.20;99.90;;;;;;5044193;28;20056;-82
2022/12/17 23:38:36;;;;;;;8.88;3.17;;;-5.20;99.90;;;;;;5054522;28;20730;-82
2022/12/17 23:41:12;;;;;;;7.10;3.55;;;-5.20;99.90;;;;;;5045437;28;20112;-82
2022/12/17 23:43:38;;;;;;;9.27;2.72;;;-5.20;99.90;;;;;;5039967;28;20359;-82
2022/12/17 23:46:05;;;;;;;4.20;3.00;;;-5.30;99.90;;;;;;5049805;28;20040;-82
2022/12/17 23:48:32;;;;;;;9.05;2.97;;;-5.30;99.90;;;;;;5048890;28;20036;-82
2022/12/17 23:50:58;;;;;;;5.85;2.65;;;-5.30;99.90;;;;;;5042663;28;20033;-82
2022/12/17 23:53:26;;;;;;;7.63;2.58;;;-5.20;99.90;;;;;;5051470;28;20209;-82
2022/12/17 23:55:52;;;;;;;3.33;2.83;;;-5.20;99.90;;;;;;5046523;28;20040;-82
2022/12/17 23:58:18;;;;;;;7.03;2.78;;;-5.20;99.90;;;;;;5055964;28;20029;-82
